Main page
METAR-TAF:

METAR-TAF

Airports :

Bhavnagar Airport

Bhavnagar, India

latitude: 21-45-08N, longitude: 72-11-07E, elevation: 6 m

Current weather observation

The report was made 12 hours and 21 minutes ago, at 14:30 UTC
Wind 3 kt from the Northwest
Temperature 24°C
Humidity 74%
Pressure 1012 hPa
Visibility: 2500 m
haze

METAR: VABV 101430Z 31003KT 2500 HZ NSC 24/19 Q1012

Time: 08:21 (02:51 UTC)

Forecast

The report was made 51 minutes ago, at 02:00 UTC
Forecast valid from 11 at 03 UTC to 11 at 12 UTC
Wind 4 kt from the Northwest
Visibility: 1000 m
haze
Becoming
from 11 at 04 UTC to 11 at 06 UTC
Wind 5 kt from the North
Visibility: 2000 m
haze
Becoming
from 11 at 07 UTC to 11 at 09 UTC
Wind 5 kt from the North/Northeast
Visibility: 3000 m
smoke

TAF: VABV 110200Z 1103/1112 32004KT 1000 HZ NSC BECMG 1104/1106 35005KT 2000 HZ BECMG 1107/1109 03005KT 3000 FU

Weather observations and forecasts of more than 4000 airports (METAR and TAF reports).

The available stations are represented by yellow and red dots on the map.

Hover mouse over dot to see the name of the station.

Then click to see weather observations and forecasts.

To change the map : click on the green buttons with a black cross to zoom in, on the green button with a dash to zoom out, or on the green arrows for adjacent maps.


METAR-TAF: